sensor_id;sensor_type;location;lat;lon;timestamp;pressure;altitude;pressure_sealevel;temperature;humidity
17615;BME280;8926;49.720;6.576;2022-12-19T00:01:10;100510.94;;;-0.90;78.94
17615;BME280;8926;49.720;6.576;2022-12-19T00:03:46;100507.53;;;-0.89;78.96
17615;BME280;8926;49.720;6.576;2022-12-19T00:06:12;100500.69;;;-0.88;78.84
17615;BME280;8926;49.720;6.576;2022-12-19T00:08:43;100493.88;;;-0.85;77.91
17615;BME280;8926;49.720;6.576;2022-12-19T00:11:10;100487.03;;;-0.89;79.09
17615;BME280;8926;49.720;6.576;2022-12-19T00:13:36;100497.28;;;-0.86;79.25
17615;BME280;8926;49.720;6.576;2022-12-19T00:16:22;100497.28;;;-0.83;79.34
17615;BME280;8926;49.720;6.576;2022-12-19T00:18:49;100487.03;;;-0.80;79.59
17615;BME280;8926;49.720;6.576;2022-12-19T00:21:16;100479.34;;;-0.83;79.36
17615;BME280;8926;49.720;6.576;2022-12-19T00:23:43;100471.66;;;-0.83;79.50
17615;BME280;8926;49.720;6.576;2022-12-19T00:26:23;100474.22;;;-0.80;79.83
17615;BME280;8926;49.720;6.576;2022-12-19T00:28:54;100473.34;;;-0.76;79.10
17615;BME280;8926;49.720;6.576;2022-12-19T00:31:21;100466.50;;;-0.74;78.67
17615;BME280;8926;49.720;6.576;2022-12-19T00:33:47;100462.22;;;-0.70;78.23
17615;BME280;8926;49.720;6.576;2022-12-19T00:36:15;100460.53;;;-0.73;79.54
17615;BME280;8926;49.720;6.576;2022-12-19T00:38:42;100471.63;;;-0.74;79.18
17615;BME280;8926;49.720;6.576;2022-12-19T00:41:13;100476.75;;;-0.77;79.41
17615;BME280;8926;49.720;6.576;2022-12-19T00:43:39;100474.19;;;-0.77;80.09
17615;BME280;8926;49.720;6.576;2022-12-19T00:46:07;100478.50;;;-0.79;80.07
17615;BME280;8926;49.720;6.576;2022-12-19T00:48:33;100469.91;;;-0.75;79.62
17615;BME280;8926;49.720;6.576;2022-12-19T00:51:03;100459.66;;;-0.69;78.70
17615;BME280;8926;49.720;6.576;2022-12-19T00:53:29;100458.81;;;-0.71;78.67
17615;BME280;8926;49.720;6.576;2022-12-19T00:55:55;100462.22;;;-0.72;78.67
17615;BME280;8926;49.720;6.576;2022-12-19T00:58:20;100456.25;;;-0.71;79.48
17615;BME280;8926;49.720;6.576;2022-12-19T01:00:46;100447.69;;;-0.66;79.89
17615;BME280;8926;49.720;6.576;2022-12-19T01:03:11;100438.28;;;-0.66;79.13
17615;BME280;8926;49.720;6.576;2022-12-19T01:05:36;100428.88;;;-0.69;79.94
17615;BME280;8926;49.720;6.576;2022-12-19T01:08:02;100437.44;;;-0.66;80.67
17615;BME280;8926;49.720;6.576;2022-12-19T01:10:27;100448.56;;;-0.68;80.03
17615;BME280;8926;49.720;6.576;2022-12-19T01:12:52;100468.22;;;-0.63;80.13
17615;BME280;8926;49.720;6.576;2022-12-19T01:15:19;100466.53;;;-0.61;80.21
17615;BME280;8926;49.720;6.576;2022-12-19T01:17:48;100476.78;;;-0.60;80.64
17615;BME280;8926;49.720;6.576;2022-12-19T01:20:17;100475.06;;;-0.56;80.71
17615;BME280;8926;49.720;6.576;2022-12-19T01:22:43;100466.53;;;-0.55;79.87
17615;BME280;8926;49.720;6.576;2022-12-19T01:25:08;100473.38;;;-0.54;80.77
17615;BME280;8926;49.720;6.576;2022-12-19T01:27:33;100470.81;;;-0.54;80.97
17615;BME280;8926;49.720;6.576;2022-12-19T01:29:59;100459.66;;;-0.50;81.08
17615;BME280;8926;49.720;6.576;2022-12-19T01:32:25;100459.66;;;-0.44;80.19
17615;BME280;8926;49.720;6.576;2022-12-19T01:34:50;100469.06;;;-0.49;79.64
17615;BME280;8926;49.720;6.576;2022-12-19T01:37:15;100461.41;;;-0.52;79.97
17615;BME280;8926;49.720;6.576;2022-12-19T01:39:41;100477.66;;;-0.56;80.45
17615;BME280;8926;49.720;6.576;2022-12-19T01:42:13;100471.66;;;-0.52;80.55
17615;BME280;8926;49.720;6.576;2022-12-19T01:44:39;100466.50;;;-0.49;80.97
17615;BME280;8926;49.720;6.576;2022-12-19T01:47:10;100467.34;;;-0.47;80.49
17615;BME280;8926;49.720;6.576;2022-12-19T01:49:37;100470.78;;;-0.45;80.53
17615;BME280;8926;49.720;6.576;2022-12-19T01:52:05;100468.22;;;-0.42;79.40
17615;BME280;8926;49.720;6.576;2022-12-19T01:54:36;100463.94;;;-0.46;80.49
17615;BME280;8926;49.720;6.576;2022-12-19T01:57:06;100467.34;;;-0.44;79.94
17615;BME280;8926;49.720;6.576;2022-12-19T01:59:43;100463.09;;;-0.42;80.53
17615;BME280;8926;49.720;6.576;2022-12-19T02:02:13;100457.94;;;-0.39;80.47
17615;BME280;8926;49.720;6.576;2022-12-19T02:04:43;100461.38;;;-0.37;79.09
17615;BME280;8926;49.720;6.576;2022-12-19T02:07:10;100443.41;;;-0.43;79.86
17615;BME280;8926;49.720;6.576;2022-12-19T02:09:35;100452.81;;;-0.45;81.19
17615;BME280;8926;49.720;6.576;2022-12-19T02:12:02;100449.41;;;-0.44;80.27
17615;BME280;8926;49.720;6.576;2022-12-19T02:14:28;100443.41;;;-0.42;80.51
17615;BME280;8926;49.720;6.576;2022-12-19T02:17:02;100440.84;;;-0.37;80.14
17615;BME280;8926;49.720;6.576;2022-12-19T02:22:14;100424.59;;;-0.31;80.36
17615;BME280;8926;49.720;6.576;2022-12-19T02:27:51;100421.16;;;-0.30;79.78
17615;BME280;8926;49.720;6.576;2022-12-19T02:33:15;100411.75;;;-0.33;80.54
17615;BME280;8926;49.720;6.576;2022-12-19T02:35:52;100420.31;;;-0.31;79.95
17615;BME280;8926;49.720;6.576;2022-12-19T02:38:47;100416.03;;;-0.29;80.37
17615;BME280;8926;49.720;6.576;2022-12-19T02:41:22;100415.16;;;-0.34;80.40
17615;BME280;8926;49.720;6.576;2022-12-19T02:43:49;100429.72;;;-0.31;80.13
17615;BME280;8926;49.720;6.576;2022-12-19T02:46:17;100426.28;;;-0.32;80.57
17615;BME280;8926;49.720;6.576;2022-12-19T02:48:43;100446.81;;;-0.27;80.19
17615;BME280;8926;49.720;6.576;2022-12-19T02:51:09;100442.50;;;-0.24;80.50
17615;BME280;8926;49.720;6.576;2022-12-19T02:53:36;100432.25;;;-0.21;80.39
17615;BME280;8926;49.720;6.576;2022-12-19T02:58:46;100427.09;;;-0.22;80.93
17615;BME280;8926;49.720;6.576;2022-12-19T03:01:35;100418.56;;;-0.23;80.85
17615;BME280;8926;49.720;6.576;2022-12-19T03:06:51;100423.69;;;-0.21;81.57
17615;BME280;8926;49.720;6.576;2022-12-19T03:11:43;100416.84;;;-0.15;80.98
17615;BME280;8926;49.720;6.576;2022-12-19T03:14:13;100415.13;;;-0.16;80.98
17615;BME280;8926;49.720;6.576;2022-12-19T03:16:40;100413.41;;;-0.11;81.27
17615;BME280;8926;49.720;6.576;2022-12-19T03:19:11;100411.69;;;-0.09;81.40
17615;BME280;8926;49.720;6.576;2022-12-19T03:21:43;100413.41;;;-0.05;80.92
17615;BME280;8926;49.720;6.576;2022-12-19T03:24:10;100404.84;;;-0.05;80.51
17615;BME280;8926;49.720;6.576;2022-12-19T03:26:47;100414.25;;;-0.04;81.16
17615;BME280;8926;49.720;6.576;2022-12-19T03:29:20;100404.81;;;-0.01;79.95
17615;BME280;8926;49.720;6.576;2022-12-19T03:31:50;100397.97;;;-0.02;80.71
17615;BME280;8926;49.720;6.576;2022-12-19T03:34:24;100392.84;;;-0.02;80.33
17615;BME280;8926;49.720;6.576;2022-12-19T03:36:55;100383.44;;;-0.01;80.42
17615;BME280;8926;49.720;6.576;2022-12-19T03:39:25;100374.88;;;-0.02;81.24
17615;BME280;8926;49.720;6.576;2022-12-19T03:41:52;100373.16;;;-0.03;80.70
17615;BME280;8926;49.720;6.576;2022-12-19T03:44:38;100367.16;;;-0.02;80.50
17615;BME280;8926;49.720;6.576;2022-12-19T03:49:37;100365.41;;;0.00;80.45
17615;BME280;8926;49.720;6.576;2022-12-19T03:52:14;100360.25;;;0.04;81.23
17615;BME280;8926;49.720;6.576;2022-12-19T03:54:58;100365.41;;;0.07;81.55
17615;BME280;8926;49.720;6.576;2022-12-19T03:57:31;100361.09;;;0.09;81.06
17615;BME280;8926;49.720;6.576;2022-12-19T04:00:02;100368.81;;;0.12;81.17
17615;BME280;8926;49.720;6.576;2022-12-19T04:02:28;100362.81;;;0.13;82.07
17615;BME280;8926;49.720;6.576;2022-12-19T04:05:04;100373.09;;;0.13;81.34
17615;BME280;8926;49.720;6.576;2022-12-19T04:07:30;100363.66;;;0.12;81.04
17615;BME280;8926;49.720;6.576;2022-12-19T04:09:57;100358.53;;;0.09;81.02
17615;BME280;8926;49.720;6.576;2022-12-19T04:12:29;100367.09;;;0.08;81.76
17615;BME280;8926;49.720;6.576;2022-12-19T04:14:55;100358.53;;;0.12;81.15
17615;BME280;8926;49.720;6.576;2022-12-19T04:20:13;100360.22;;;0.14;81.49
17615;BME280;8926;49.720;6.576;2022-12-19T04:25:12;100373.06;;;0.20;80.55
17615;BME280;8926;49.720;6.576;2022-12-19T04:27:41;100363.66;;;0.18;80.96
17615;BME280;8926;49.720;6.576;2022-12-19T04:30:12;100372.19;;;0.20;79.92
17615;BME280;8926;49.720;6.576;2022-12-19T04:32:44;100371.38;;;0.15;81.42
17615;BME280;8926;49.720;6.576;2022-12-19T04:35:10;100376.50;;;0.18;80.85
17615;BME280;8926;49.720;6.576;2022-12-19T04:37:35;100374.78;;;0.20;81.46
17615;BME280;8926;49.720;6.576;2022-12-19T04:40:01;100369.63;;;0.23;80.90
17615;BME280;8926;49.720;6.576;2022-12-19T04:42:26;100379.03;;;0.24;81.37
17615;BME280;8926;49.720;6.576;2022-12-19T04:44:52;100377.28;;;0.29;81.37
17615;BME280;8926;49.720;6.576;2022-12-19T04:47:17;100366.16;;;0.27;81.39
17615;BME280;8926;49.720;6.576;2022-12-19T04:49:43;100375.56;;;0.28;81.62
17615;BME280;8926;49.720;6.576;2022-12-19T04:52:08;100373.84;;;0.27;80.88
17615;BME280;8926;49.720;6.576;2022-12-19T04:54:34;100361.00;;;0.30;80.70
17615;BME280;8926;49.720;6.576;2022-12-19T04:56:59;100347.31;;;0.26;81.33
17615;BME280;8926;49.720;6.576;2022-12-19T04:59:24;100341.34;;;0.26;80.02
17615;BME280;8926;49.720;6.576;2022-12-19T05:01:50;100350.78;;;0.22;81.69
17615;BME280;8926;49.720;6.576;2022-12-19T05:04:15;100346.50;;;0.23;81.87
17615;BME280;8926;49.720;6.576;2022-12-19T05:06:41;100348.22;;;0.21;82.00
17615;BME280;8926;49.720;6.576;2022-12-19T05:09:06;100343.09;;;0.21;81.46
17615;BME280;8926;49.720;6.576;2022-12-19T05:11:31;100337.94;;;0.21;80.66
17615;BME280;8926;49.720;6.576;2022-12-19T05:13:57;100341.38;;;0.20;81.09
17615;BME280;8926;49.720;6.576;2022-12-19T05:16:23;100344.81;;;0.19;81.89
17615;BME280;8926;49.720;6.576;2022-12-19T05:18:49;100339.66;;;0.19;82.46
17615;BME280;8926;49.720;6.576;2022-12-19T05:21:14;100351.63;;;0.26;82.34
17615;BME280;8926;49.720;6.576;2022-12-19T05:23:39;100352.44;;;0.28;82.61
17615;BME280;8926;49.720;6.576;2022-12-19T05:26:05;100349.84;;;0.31;82.03
17615;BME280;8926;49.720;6.576;2022-12-19T05:28:31;100351.56;;;0.35;82.52
17615;BME280;8926;49.720;6.576;2022-12-19T05:31:12;100353.25;;;0.39;82.09
17615;BME280;8926;49.720;6.576;2022-12-19T05:33:39;100356.69;;;0.38;81.41
17615;BME280;8926;49.720;6.576;2022-12-19T05:36:06;100348.97;;;0.40;81.69
17615;BME280;8926;49.720;6.576;2022-12-19T05:38:32;100356.66;;;0.44;81.70
17615;BME280;8926;49.720;6.576;2022-12-19T05:40:58;100354.94;;;0.43;82.97
17615;BME280;8926;49.720;6.576;2022-12-19T05:43:23;100361.78;;;0.47;82.22
17615;BME280;8926;49.720;6.576;2022-12-19T05:45:49;100372.00;;;0.53;82.63
17615;BME280;8926;49.720;6.576;2022-12-19T05:48:14;100368.63;;;0.51;81.94
17615;BME280;8926;49.720;6.576;2022-12-19T05:50:39;100366.84;;;0.53;81.94
17615;BME280;8926;49.720;6.576;2022-12-19T05:53:05;100377.13;;;0.53;82.79
17615;BME280;8926;49.720;6.576;2022-12-19T05:55:30;100372.84;;;0.55;82.93
17615;BME280;8926;49.720;6.576;2022-12-19T05:57:56;100372.91;;;0.51;82.02
17615;BME280;8926;49.720;6.576;2022-12-19T06:00:22;100361.78;;;0.47;81.41
17615;BME280;8926;49.720;6.576;2022-12-19T06:02:47;100366.91;;;0.47;81.81
17615;BME280;8926;49.720;6.576;2022-12-19T06:05:13;100370.34;;;0.49;81.86
17615;BME280;8926;49.720;6.576;2022-12-19T06:07:38;100363.47;;;0.50;81.93
17615;BME280;8926;49.720;6.576;2022-12-19T06:10:05;100363.41;;;0.54;82.62
17615;BME280;8926;49.720;6.576;2022-12-19T06:12:30;100363.41;;;0.57;82.79
17615;BME280;8926;49.720;6.576;2022-12-19T06:14:55;100362.53;;;0.58;82.25
17615;BME280;8926;49.720;6.576;2022-12-19T06:17:21;100366.75;;;0.75;83.77
17615;BME280;8926;49.720;6.576;2022-12-19T06:19:46;100364.91;;;0.89;83.66
17615;BME280;8926;49.720;6.576;2022-12-19T06:22:12;100371.75;;;0.93;81.81
17615;BME280;8926;49.720;6.576;2022-12-19T06:24:37;100372.63;;;0.90;80.96
17615;BME280;8926;49.720;6.576;2022-12-19T06:27:02;100370.88;;;0.94;82.76
17615;BME280;8926;49.720;6.576;2022-12-19T06:29:28;100366.56;;;0.96;81.24
17615;BME280;8926;49.720;6.576;2022-12-19T06:31:53;100368.34;;;0.88;81.23
17615;BME280;8926;49.720;6.576;2022-12-19T06:34:18;100365.78;;;0.85;81.37
17615;BME280;8926;49.720;6.576;2022-12-19T06:36:43;100358.94;;;0.84;81.79
17615;BME280;8926;49.720;6.576;2022-12-19T06:39:12;100352.94;;;0.82;81.94
17615;BME280;8926;49.720;6.576;2022-12-19T06:41:38;100362.41;;;0.78;81.81
17615;BME280;8926;49.720;6.576;2022-12-19T06:44:21;100348.75;;;0.76;81.57
17615;BME280;8926;49.720;6.576;2022-12-19T06:46:47;100354.72;;;0.77;82.86
17615;BME280;8926;49.720;6.576;2022-12-19T06:49:12;100353.03;;;0.76;81.81
17615;BME280;8926;49.720;6.576;2022-12-19T06:51:37;100351.31;;;0.75;82.38
17615;BME280;8926;49.720;6.576;2022-12-19T06:54:03;100346.16;;;0.75;81.96
17615;BME280;8926;49.720;6.576;2022-12-19T06:56:36;100359.81;;;0.80;82.35
17615;BME280;8926;49.720;6.576;2022-12-19T06:59:01;100350.38;;;0.83;82.86
17615;BME280;8926;49.720;6.576;2022-12-19T07:01:49;100354.66;;;0.86;81.56
17615;BME280;8926;49.720;6.576;2022-12-19T07:04:21;100351.22;;;0.87;82.61
17615;BME280;8926;49.720;6.576;2022-12-19T07:06:48;100347.78;;;0.88;83.27
17615;BME280;8926;49.720;6.576;2022-12-19T07:09:13;100354.59;;;0.92;82.56
17615;BME280;8926;49.720;6.576;2022-12-19T07:11:39;100349.47;;;0.92;83.30
17615;BME280;8926;49.720;6.576;2022-12-19T07:14:04;100351.16;;;0.93;82.17
17615;BME280;8926;49.720;6.576;2022-12-19T07:16:29;100346.00;;;0.96;81.97
17615;BME280;8926;49.720;6.576;2022-12-19T07:18:54;100349.44;;;0.93;82.80
17615;BME280;8926;49.720;6.576;2022-12-19T07:21:20;100356.28;;;0.96;81.88
17615;BME280;8926;49.720;6.576;2022-12-19T07:23:47;100357.19;;;0.92;82.99
17615;BME280;8926;49.720;6.576;2022-12-19T07:26:12;100370.06;;;0.89;82.00
17615;BME280;8926;49.720;6.576;2022-12-19T07:28:38;100365.78;;;0.88;83.29
17615;BME280;8926;49.720;6.576;2022-12-19T07:31:03;100356.34;;;0.90;82.10
17615;BME280;8926;49.720;6.576;2022-12-19T07:33:28;100364.88;;;0.92;83.37
17615;BME280;8926;49.720;6.576;2022-12-19T07:35:53;100359.72;;;0.93;82.74
17615;BME280;8926;49.720;6.576;2022-12-19T07:38:19;100352.88;;;0.92;83.11
17615;BME280;8926;49.720;6.576;2022-12-19T07:40:44;100365.72;;;0.95;83.55
17615;BME280;8926;49.720;6.576;2022-12-19T07:43:09;100375.13;;;0.98;83.74
17615;BME280;8926;49.720;6.576;2022-12-19T07:45:36;100373.41;;;1.00;83.55
17615;BME280;8926;49.720;6.576;2022-12-19T07:48:03;100383.69;;;1.03;83.38
17615;BME280;8926;49.720;6.576;2022-12-19T07:50:29;100377.63;;;1.06;83.84
17615;BME280;8926;49.720;6.576;2022-12-19T07:52:56;100381.91;;;1.08;84.02
17615;BME280;8926;49.720;6.576;2022-12-19T07:55:21;100380.16;;;1.13;83.90
17615;BME280;8926;49.720;6.576;2022-12-19T07:57:47;100385.28;;;1.13;82.94
17615;BME280;8926;49.720;6.576;2022-12-19T08:00:12;100390.44;;;1.12;83.20
17615;BME280;8926;49.720;6.576;2022-12-19T08:02:38;100388.72;;;1.12;83.05
17615;BME280;8926;49.720;6.576;2022-12-19T08:05:03;100390.44;;;1.13;83.33
17615;BME280;8926;49.720;6.576;2022-12-19T08:07:30;100393.84;;;1.15;83.62
17615;BME280;8926;49.720;6.576;2022-12-19T08:09:55;100383.56;;;1.15;83.38
17615;BME280;8926;49.720;6.576;2022-12-19T08:12:20;100380.09;;;1.19;83.94
17615;BME280;8926;49.720;6.576;2022-12-19T08:14:46;100370.66;;;1.20;83.11
17615;BME280;8926;49.720;6.576;2022-12-19T08:17:11;100375.78;;;1.23;83.79
17615;BME280;8926;49.720;6.576;2022-12-19T08:19:36;100380.06;;;1.25;83.24
17615;BME280;8926;49.720;6.576;2022-12-19T08:22:01;100380.91;;;1.26;83.96
17615;BME280;8926;49.720;6.576;2022-12-19T08:24:27;100373.91;;;1.39;84.35
17615;BME280;8926;49.720;6.576;2022-12-19T08:26:52;100379.88;;;1.44;83.44
17615;BME280;8926;49.720;6.576;2022-12-19T08:29:17;100381.59;;;1.43;83.01
17615;BME280;8926;49.720;6.576;2022-12-19T08:31:43;100379.03;;;1.43;83.51
17615;BME280;8926;49.720;6.576;2022-12-19T08:34:08;100388.41;;;1.52;84.43
17615;BME280;8926;49.720;6.576;2022-12-19T08:36:33;100383.09;;;1.64;84.17
17615;BME280;8926;49.720;6.576;2022-12-19T08:38:59;100384.81;;;1.65;83.26
17615;BME280;8926;49.720;6.576;2022-12-19T08:41:24;100377.06;;;1.66;83.23
17615;BME280;8926;49.720;6.576;2022-12-19T08:43:51;100374.47;;;1.68;83.29
17615;BME280;8926;49.720;6.576;2022-12-19T08:46:18;100365.03;;;1.70;83.79
17615;BME280;8926;49.720;6.576;2022-12-19T08:48:44;100358.19;;;1.67;83.59
17615;BME280;8926;49.720;6.576;2022-12-19T08:51:11;100355.59;;;1.69;83.02
17615;BME280;8926;49.720;6.576;2022-12-19T08:53:38;100358.97;;;1.74;83.63
17615;BME280;8926;49.720;6.576;2022-12-19T08:58:36;100347.69;;;1.84;83.17
17615;BME280;8926;49.720;6.576;2022-12-19T09:01:06;100341.66;;;1.85;83.21
17615;BME280;8926;49.720;6.576;2022-12-19T09:03:33;100343.31;;;1.89;83.05
17615;BME280;8926;49.720;6.576;2022-12-19T09:06:01;100341.50;;;2.00;82.98
17615;BME280;8926;49.720;6.576;2022-12-19T09:08:27;100332.75;;;2.11;82.66
17615;BME280;8926;49.720;6.576;2022-12-19T09:11:14;100338.75;;;2.11;83.56
17615;BME280;8926;49.720;6.576;2022-12-19T09:13:41;100342.91;;;2.23;82.74
17615;BME280;8926;49.720;6.576;2022-12-19T09:18:34;100337.00;;;2.13;82.58
17615;BME280;8926;49.720;6.576;2022-12-19T09:21:01;100332.75;;;2.11;83.14
17615;BME280;8926;49.720;6.576;2022-12-19T09:23:27;100334.50;;;2.09;83.44
17615;BME280;8926;49.720;6.576;2022-12-19T09:25:54;100343.94;;;2.10;83.03
17615;BME280;8926;49.720;6.576;2022-12-19T09:28:20;100339.72;;;2.06;82.98
17615;BME280;8926;49.720;6.576;2022-12-19T09:30:54;100334.56;;;2.06;83.57
17615;BME280;8926;49.720;6.576;2022-12-19T09:33:20;100337.13;;;2.07;83.39
17615;BME280;8926;49.720;6.576;2022-12-19T09:35:53;100324.16;;;2.12;83.56
17615;BME280;8926;49.720;6.576;2022-12-19T09:38:20;100330.16;;;2.12;82.99
17615;BME280;8926;49.720;6.576;2022-12-19T09:48:34;100325.81;;;2.16;83.57
17615;BME280;8926;49.720;6.576;2022-12-19T09:51:10;100325.78;;;2.19;82.68
17615;BME280;8926;49.720;6.576;2022-12-19T09:56:43;100312.91;;;2.19;83.27
17615;BME280;8926;49.720;6.576;2022-12-19T09:59:23;100309.31;;;2.30;84.03
17615;BME280;8926;49.720;6.576;2022-12-19T10:01:59;100296.31;;;2.35;84.00
17615;BME280;8926;49.720;6.576;2022-12-19T10:04:27;100296.13;;;2.50;85.13
17615;BME280;8926;49.720;6.576;2022-12-19T10:06:54;100306.31;;;2.59;83.44
17615;BME280;8926;49.720;6.576;2022-12-19T10:09:22;100301.16;;;2.59;83.44
17615;BME280;8926;49.720;6.576;2022-12-19T10:17:32;100289.91;;;2.62;83.24
17615;BME280;8926;49.720;6.576;2022-12-19T10:20:27;100288.13;;;2.65;82.66
17615;BME280;8926;49.720;6.576;2022-12-19T10:26:00;100277.84;;;2.64;82.69
17615;BME280;8926;49.720;6.576;2022-12-19T10:28:39;100276.13;;;2.64;82.40
17615;BME280;8926;49.720;6.576;2022-12-19T10:31:15;100256.31;;;2.66;82.37
17615;BME280;8926;49.720;6.576;2022-12-19T10:36:57;100263.16;;;2.67;82.50
17615;BME280;8926;49.720;6.576;2022-12-19T10:39:33;100257.97;;;2.70;82.98
17615;BME280;8926;49.720;6.576;2022-12-19T10:42:14;100251.91;;;2.73;82.68
17615;BME280;8926;49.720;6.576;2022-12-19T10:44:44;100249.25;;;2.78;83.14
17615;BME280;8926;49.720;6.576;2022-12-19T10:47:14;100258.66;;;2.82;82.49
17615;BME280;8926;49.720;6.576;2022-12-19T10:49:40;100247.41;;;2.86;82.90
17615;BME280;8926;49.720;6.576;2022-12-19T10:52:07;100245.56;;;2.91;82.91
17615;BME280;8926;49.720;6.576;2022-12-19T11:05:20;100238.34;;;3.11;82.33
17615;BME280;8926;49.720;6.576;2022-12-19T11:07:59;100233.03;;;3.17;81.72
17615;BME280;8926;49.720;6.576;2022-12-19T11:15:59;100239.94;;;3.61;82.07
17615;BME280;8926;49.720;6.576;2022-12-19T11:18:34;100226.78;;;3.72;81.84
17615;BME280;8926;49.720;6.576;2022-12-19T11:23:45;100220.56;;;3.81;80.44
17615;BME280;8926;49.720;6.576;2022-12-19T11:26:27;100223.06;;;3.85;80.06
17615;BME280;8926;49.720;6.576;2022-12-19T11:29:01;100223.00;;;3.88;80.84
17615;BME280;8926;49.720;6.576;2022-12-19T11:31:28;100213.38;;;3.93;80.62
17615;BME280;8926;49.720;6.576;2022-12-19T11:34:01;100215.97;;;3.93;80.42
17615;BME280;8926;49.720;6.576;2022-12-19T11:37:02;100210.81;;;3.93;80.61
17615;BME280;8926;49.720;6.576;2022-12-19T11:39:32;100208.97;;;3.98;80.86
17615;BME280;8926;49.720;6.576;2022-12-19T11:42:07;100221.81;;;4.03;81.04
17615;BME280;8926;49.720;6.576;2022-12-19T11:44:43;100218.97;;;4.14;80.51
17615;BME280;8926;49.720;6.576;2022-12-19T11:47:30;100225.75;;;4.18;80.05
17615;BME280;8926;49.720;6.576;2022-12-19T11:50:10;100227.56;;;4.16;80.16
17615;BME280;8926;49.720;6.576;2022-12-19T11:52:57;100223.19;;;4.16;81.57
17615;BME280;8926;49.720;6.576;2022-12-19T11:55:49;100210.25;;;4.18;80.91
17615;BME280;8926;49.720;6.576;2022-12-19T11:58:17;100210.34;;;4.15;81.36
17615;BME280;8926;49.720;6.576;2022-12-19T12:00:54;100206.94;;;4.13;80.66
17615;BME280;8926;49.720;6.576;2022-12-19T12:03:41;100198.19;;;4.17;80.70
17615;BME280;8926;49.720;6.576;2022-12-19T12:06:33;100199.16;;;4.14;81.23
17615;BME280;8926;49.720;6.576;2022-12-19T12:12:21;100200.78;;;4.17;81.78
17615;BME280;8926;49.720;6.576;2022-12-19T12:20:35;100188.81;;;4.48;83.97
17615;BME280;8926;49.720;6.576;2022-12-19T12:25:58;100196.84;;;4.71;84.50
17615;BME280;8926;49.720;6.576;2022-12-19T12:31:33;100172.59;;;4.75;81.40
17615;BME280;8926;49.720;6.576;2022-12-19T12:34:06;100172.59;;;4.75;81.22
17615;BME280;8926;49.720;6.576;2022-12-19T12:42:29;100174.38;;;4.73;81.03
17615;BME280;8926;49.720;6.576;2022-12-19T12:45:49;100178.53;;;4.79;81.93
17615;BME280;8926;49.720;6.576;2022-12-19T12:47:51;100174.06;;;4.86;83.13
17615;BME280;8926;49.720;6.576;2022-12-19T12:50:20;100169.59;;;4.92;82.62
17615;BME280;8926;49.720;6.576;2022-12-19T12:52:49;100177.13;;;5.00;84.45
17615;BME280;8926;49.720;6.576;2022-12-19T12:55:31;100168.06;;;5.16;84.80
17615;BME280;8926;49.720;6.576;2022-12-19T12:57:58;100155.91;;;5.18;82.85
17615;BME280;8926;49.720;6.576;2022-12-19T13:00:30;100154.38;;;5.11;82.63
17615;BME280;8926;49.720;6.576;2022-12-19T13:07:55;100153.50;;;5.12;81.18
17615;BME280;8926;49.720;6.576;2022-12-19T13:10:23;100156.00;;;5.15;82.06
17615;BME280;8926;49.720;6.576;2022-12-19T13:13:02;100155.19;;;5.13;82.21
17615;BME280;8926;49.720;6.576;2022-12-19T13:15:34;100158.66;;;5.12;81.70
17615;BME280;8926;49.720;6.576;2022-12-19T13:18:33;100156.09;;;5.12;80.75
17615;BME280;8926;49.720;6.576;2022-12-19T13:21:02;100154.47;;;5.08;80.64
17615;BME280;8926;49.720;6.576;2022-12-19T13:26:02;100156.25;;;5.06;80.46
17615;BME280;8926;49.720;6.576;2022-12-19T13:39:28;100141.63;;;5.03;81.24
17615;BME280;8926;49.720;6.576;2022-12-19T13:42:06;100138.19;;;5.03;81.21
17615;BME280;8926;49.720;6.576;2022-12-19T13:44:55;100139.09;;;5.02;80.86
17615;BME280;8926;49.720;6.576;2022-12-19T13:47:21;100137.31;;;5.04;81.22
17615;BME280;8926;49.720;6.576;2022-12-19T13:49:47;100132.13;;;5.04;81.66
17615;BME280;8926;49.720;6.576;2022-12-19T13:52:12;100140.78;;;5.03;81.41
17615;BME280;8926;49.720;6.576;2022-12-19T13:54:47;100135.63;;;5.03;81.66
17615;BME280;8926;49.720;6.576;2022-12-19T13:57:24;100137.47;;;4.98;81.55
17615;BME280;8926;49.720;6.576;2022-12-19T13:59:51;100134.00;;;4.99;80.46
17615;BME280;8926;49.720;6.576;2022-12-19T14:02:28;100137.63;;;4.93;81.22
17615;BME280;8926;49.720;6.576;2022-12-19T14:04:56;100132.50;;;4.92;81.49
17615;BME280;8926;49.720;6.576;2022-12-19T14:07:37;100121.28;;;4.91;80.98
17615;BME280;8926;49.720;6.576;2022-12-19T14:10:06;100127.31;;;4.92;81.46
17615;BME280;8926;49.720;6.576;2022-12-19T14:12:40;100126.47;;;4.91;82.88
17615;BME280;8926;49.720;6.576;2022-12-19T14:17:53;100130.88;;;4.88;82.64
17615;BME280;8926;49.720;6.576;2022-12-19T14:20:26;100125.69;;;4.88;81.67
17615;BME280;8926;49.720;6.576;2022-12-19T14:22:57;100120.69;;;4.82;81.83
17615;BME280;8926;49.720;6.576;2022-12-19T14:25:25;100117.38;;;4.76;82.47
17615;BME280;8926;49.720;6.576;2022-12-19T14:28:04;100114.03;;;4.71;82.31
17615;BME280;8926;49.720;6.576;2022-12-19T14:30:33;100114.03;;;4.71;81.39
17615;BME280;8926;49.720;6.576;2022-12-19T14:33:06;100106.34;;;4.68;82.12
17615;BME280;8926;49.720;6.576;2022-12-19T14:35:42;100105.66;;;4.63;83.11
17615;BME280;8926;49.720;6.576;2022-12-19T14:38:29;100116.09;;;4.60;82.93
17615;BME280;8926;49.720;6.576;2022-12-19T14:40:59;100109.28;;;4.56;82.73
17615;BME280;8926;49.720;6.576;2022-12-19T14:43:27;100110.34;;;4.49;83.03
17615;BME280;8926;49.720;6.576;2022-12-19T14:48:54;100129.53;;;4.40;83.10
17615;BME280;8926;49.720;6.576;2022-12-19T14:56:43;100130.69;;;4.29;83.96
17615;BME280;8926;49.720;6.576;2022-12-19T14:59:31;100120.41;;;4.26;84.05
17615;BME280;8926;49.720;6.576;2022-12-19T15:04:46;100126.56;;;4.22;84.22
17615;BME280;8926;49.720;6.576;2022-12-19T15:07:17;100134.22;;;4.25;83.94
17615;BME280;8926;49.720;6.576;2022-12-19T15:12:23;100139.41;;;4.25;84.74
17615;BME280;8926;49.720;6.576;2022-12-19T15:15:21;100141.03;;;4.29;83.80
17615;BME280;8926;49.720;6.576;2022-12-19T15:17:53;100134.16;;;4.28;84.21
17615;BME280;8926;49.720;6.576;2022-12-19T15:20:19;100136.81;;;4.25;85.11
17615;BME280;8926;49.720;6.576;2022-12-19T15:22:45;100144.56;;;4.25;84.13
17615;BME280;8926;49.720;6.576;2022-12-19T15:25:15;100147.31;;;4.19;84.75
17615;BME280;8926;49.720;6.576;2022-12-19T15:27:44;100139.66;;;4.16;85.20